sensor_id;sensor_type;location;lat;lon;timestamp;temperature;humidity
25328;DHT22;13279;51.300;12.394;2022-08-03T03:17:39;17.90;99.90
25328;DHT22;13279;51.300;12.394;2022-08-03T03:20:10;17.90;99.90
25328;DHT22;13279;51.300;12.394;2022-08-03T03:22:39;17.80;99.90
25328;DHT22;13279;51.300;12.394;2022-08-03T03:25:08;17.80;99.90
25328;DHT22;13279;51.300;12.394;2022-08-03T03:27:36;17.80;99.90
25328;DHT22;13279;51.300;12.394;2022-08-03T03:30:04;17.80;99.90
25328;DHT22;13279;51.300;12.394;2022-08-03T03:32:32;17.90;99.90
25328;DHT22;13279;51.300;12.394;2022-08-03T03:35:04;17.90;99.90
25328;DHT22;13279;51.300;12.394;2022-08-03T03:37:31;17.90;99.90
25328;DHT22;13279;51.300;12.394;2022-08-03T03:39:59;17.90;99.90
25328;DHT22;13279;51.300;12.394;2022-08-03T03:42:26;17.90;99.90
25328;DHT22;13279;51.300;12.394;2022-08-03T03:44:53;17.80;99.90
25328;DHT22;13279;51.300;12.394;2022-08-03T03:47:21;17.80;99.90
25328;DHT22;13279;51.300;12.394;2022-08-03T03:49:49;17.80;99.90
25328;DHT22;13279;51.300;12.394;2022-08-03T03:52:18;17.80;99.90
25328;DHT22;13279;51.300;12.394;2022-08-03T03:54:45;17.80;99.90
25328;DHT22;13279;51.300;12.394;2022-08-03T03:57:13;17.70;99.90
25328;DHT22;13279;51.300;12.394;2022-08-03T03:59:41;17.70;99.90
25328;DHT22;13279;51.300;12.394;2022-08-03T04:02:10;17.80;99.90
25328;DHT22;13279;51.300;12.394;2022-08-03T04:04:38;17.80;99.90
25328;DHT22;13279;51.300;12.394;2022-08-03T04:07:26;17.80;99.90
25328;DHT22;13279;51.300;12.394;2022-08-03T04:10:15;17.80;99.90
25328;DHT22;13279;51.300;12.394;2022-08-03T04:13:03;17.80;99.90
25328;DHT22;13279;51.300;12.394;2022-08-03T04:15:34;17.90;99.90
25328;DHT22;13279;51.300;12.394;2022-08-03T04:18:03;17.90;99.90
25328;DHT22;13279;51.300;12.394;2022-08-03T04:20:35;17.90;99.90
25328;DHT22;13279;51.300;12.394;2022-08-03T04:23:06;17.90;99.90
25328;DHT22;13279;51.300;12.394;2022-08-03T04:25:36;17.90;99.90
25328;DHT22;13279;51.300;12.394;2022-08-03T04:28:06;17.90;99.90
25328;DHT22;13279;51.300;12.394;2022-08-03T04:30:36;17.90;99.90
25328;DHT22;13279;51.300;12.394;2022-08-03T04:33:05;17.90;99.90
25328;DHT22;13279;51.300;12.394;2022-08-03T04:35:35;17.80;99.90
25328;DHT22;13279;51.300;12.394;2022-08-03T04:38:07;17.90;99.90
25328;DHT22;13279;51.300;12.394;2022-08-03T04:40:36;17.90;99.90
25328;DHT22;13279;51.300;12.394;2022-08-03T04:43:07;17.90;99.90
25328;DHT22;13279;51.300;12.394;2022-08-03T04:45:36;17.90;99.90
25328;DHT22;13279;51.300;12.394;2022-08-03T04:48:05;17.90;99.90
25328;DHT22;13279;51.300;12.394;2022-08-03T04:50:33;17.90;99.90
25328;DHT22;13279;51.300;12.394;2022-08-03T04:53:05;17.90;99.90
25328;DHT22;13279;51.300;12.394;2022-08-03T04:55:34;18.00;99.90
25328;DHT22;13279;51.300;12.394;2022-08-03T04:58:02;18.00;99.90
25328;DHT22;13279;51.300;12.394;2022-08-03T05:00:32;18.10;99.90
25328;DHT22;13279;51.300;12.394;2022-08-03T05:03:00;18.10;99.90
25328;DHT22;13279;51.300;12.394;2022-08-03T05:05:28;18.20;99.90
25328;DHT22;13279;51.300;12.394;2022-08-03T05:07:55;18.30;99.90
25328;DHT22;13279;51.300;12.394;2022-08-03T05:10:23;18.30;99.90
25328;DHT22;13279;51.300;12.394;2022-08-03T05:12:52;18.40;99.90
25328;DHT22;13279;51.300;12.394;2022-08-03T05:15:20;18.40;99.90
25328;DHT22;13279;51.300;12.394;2022-08-03T05:17:47;18.50;99.90
25328;DHT22;13279;51.300;12.394;2022-08-03T05:20:15;18.60;99.90
25328;DHT22;13279;51.300;12.394;2022-08-03T05:22:43;18.60;99.90
25328;DHT22;13279;51.300;12.394;2022-08-03T05:25:11;18.70;99.90
25328;DHT22;13279;51.300;12.394;2022-08-03T05:27:38;18.70;99.90
25328;DHT22;13279;51.300;12.394;2022-08-03T05:30:08;18.80;99.90
25328;DHT22;13279;51.300;12.394;2022-08-03T05:32:36;18.90;99.90
25328;DHT22;13279;51.300;12.394;2022-08-03T05:35:05;19.00;99.90
25328;DHT22;13279;51.300;12.394;2022-08-03T05:37:33;19.00;99.90
25328;DHT22;13279;51.300;12.394;2022-08-03T05:40:00;19.10;25.70
25328;DHT22;13279;51.300;12.394;2022-08-03T05:42:30;19.20;2.40
25328;DHT22;13279;51.300;12.394;2022-08-03T05:44:57;19.20;1.00
25328;DHT22;13279;51.300;12.394;2022-08-03T05:47:26;19.30;1.00
25328;DHT22;13279;51.300;12.394;2022-08-03T05:49:54;19.40;1.00
25328;DHT22;13279;51.300;12.394;2022-08-03T05:52:24;19.50;1.00
25328;DHT22;13279;51.300;12.394;2022-08-03T05:54:51;19.60;1.00
25328;DHT22;13279;51.300;12.394;2022-08-03T05:57:18;19.70;1.00
25328;DHT22;13279;51.300;12.394;2022-08-03T05:59:46;19.80;1.00
25328;DHT22;13279;51.300;12.394;2022-08-03T06:02:13;20.00;1.00
25328;DHT22;13279;51.300;12.394;2022-08-03T06:04:42;20.10;1.00
25328;DHT22;13279;51.300;12.394;2022-08-03T06:07:10;20.30;1.00
25328;DHT22;13279;51.300;12.394;2022-08-03T06:09:38;20.40;1.00
25328;DHT22;13279;51.300;12.394;2022-08-03T06:12:06;20.50;1.00
25328;DHT22;13279;51.300;12.394;2022-08-03T06:14:34;20.70;1.00
25328;DHT22;13279;51.300;12.394;2022-08-03T06:17:02;20.80;1.00
25328;DHT22;13279;51.300;12.394;2022-08-03T06:19:30;21.00;1.00
25328;DHT22;13279;51.300;12.394;2022-08-03T06:21:59;21.20;1.00
25328;DHT22;13279;51.300;12.394;2022-08-03T06:24:26;21.30;1.00
25328;DHT22;13279;51.300;12.394;2022-08-03T06:26:54;21.50;99.90
25328;DHT22;13279;51.300;12.394;2022-08-03T06:29:22;21.70;99.90
25328;DHT22;13279;51.300;12.394;2022-08-03T06:31:50;21.80;99.90
25328;DHT22;13279;51.300;12.394;2022-08-03T06:34:17;21.90;99.90
25328;DHT22;13279;51.300;12.394;2022-08-03T06:36:45;22.10;99.90
25328;DHT22;13279;51.300;12.394;2022-08-03T06:39:15;22.40;22.80
25328;DHT22;13279;51.300;12.394;2022-08-03T06:41:43;22.60;4.60
25328;DHT22;13279;51.300;12.394;2022-08-03T06:44:11;22.80;1.00
25328;DHT22;13279;51.300;12.394;2022-08-03T06:46:38;23.10;1.00
25328;DHT22;13279;51.300;12.394;2022-08-03T06:49:07;23.40;1.00
25328;DHT22;13279;51.300;12.394;2022-08-03T06:51:35;23.50;1.00
25328;DHT22;13279;51.300;12.394;2022-08-03T06:54:02;23.60;1.00
25328;DHT22;13279;51.300;12.394;2022-08-03T06:56:31;23.90;1.00
25328;DHT22;13279;51.300;12.394;2022-08-03T06:58:59;24.10;99.90
25328;DHT22;13279;51.300;12.394;2022-08-03T07:01:26;24.30;99.90
25328;DHT22;13279;51.300;12.394;2022-08-03T07:03:54;24.30;1.00
25328;DHT22;13279;51.300;12.394;2022-08-03T07:06:22;24.30;1.00
25328;DHT22;13279;51.300;12.394;2022-08-03T07:08:50;24.40;1.00
25328;DHT22;13279;51.300;12.394;2022-08-03T07:11:17;24.70;1.00
25328;DHT22;13279;51.300;12.394;2022-08-03T07:13:46;24.90;1.00
25328;DHT22;13279;51.300;12.394;2022-08-03T07:16:14;25.10;1.00
25328;DHT22;13279;51.300;12.394;2022-08-03T07:18:41;25.30;1.00
25328;DHT22;13279;51.300;12.394;2022-08-03T07:21:09;25.50;99.90
25328;DHT22;13279;51.300;12.394;2022-08-03T07:23:37;25.80;99.90
25328;DHT22;13279;51.300;12.394;2022-08-03T07:26:06;26.00;99.90
25328;DHT22;13279;51.300;12.394;2022-08-03T07:28:33;26.20;1.00
25328;DHT22;13279;51.300;12.394;2022-08-03T07:31:02;26.40;1.00
25328;DHT22;13279;51.300;12.394;2022-08-03T07:33:30;26.60;99.90
25328;DHT22;13279;51.300;12.394;2022-08-03T07:35:58;26.80;99.90
25328;DHT22;13279;51.300;12.394;2022-08-03T07:38:25;26.80;1.00
25328;DHT22;13279;51.300;12.394;2022-08-03T07:40:52;26.80;1.00
25328;DHT22;13279;51.300;12.394;2022-08-03T07:43:20;26.80;1.00
25328;DHT22;13279;51.300;12.394;2022-08-03T07:45:49;26.80;1.00
25328;DHT22;13279;51.300;12.394;2022-08-03T07:48:18;27.00;1.00
25328;DHT22;13279;51.300;12.394;2022-08-03T07:50:46;27.10;1.00
25328;DHT22;13279;51.300;12.394;2022-08-03T07:53:13;27.20;1.00
25328;DHT22;13279;51.300;12.394;2022-08-03T07:55:40;27.30;1.00
25328;DHT22;13279;51.300;12.394;2022-08-03T07:58:10;27.40;1.00
25328;DHT22;13279;51.300;12.394;2022-08-03T08:00:40;27.50;99.90
25328;DHT22;13279;51.300;12.394;2022-08-03T08:03:10;27.70;99.90
25328;DHT22;13279;51.300;12.394;2022-08-03T08:05:39;27.80;1.00
25328;DHT22;13279;51.300;12.394;2022-08-03T08:08:07;27.80;99.90
25328;DHT22;13279;51.300;12.394;2022-08-03T08:10:35;28.00;1.00
25328;DHT22;13279;51.300;12.394;2022-08-03T08:13:03;28.20;1.00
25328;DHT22;13279;51.300;12.394;2022-08-03T08:15:30;28.40;99.90
25328;DHT22;13279;51.300;12.394;2022-08-03T08:18:00;28.50;45.90
25328;DHT22;13279;51.300;12.394;2022-08-03T08:20:29;28.70;1.00
25328;DHT22;13279;51.300;12.394;2022-08-03T08:23:00;28.80;1.00
25328;DHT22;13279;51.300;12.394;2022-08-03T08:25:29;28.90;1.00
25328;DHT22;13279;51.300;12.394;2022-08-03T08:27:57;28.80;1.00
25328;DHT22;13279;51.300;12.394;2022-08-03T08:30:27;28.90;1.00
25328;DHT22;13279;51.300;12.394;2022-08-03T08:32:55;29.10;99.90
25328;DHT22;13279;51.300;12.394;2022-08-03T08:35:23;29.20;99.90
25328;DHT22;13279;51.300;12.394;2022-08-03T08:37:50;29.50;99.90
25328;DHT22;13279;51.300;12.394;2022-08-03T08:40:21;29.70;1.00
25328;DHT22;13279;51.300;12.394;2022-08-03T08:42:49;29.70;1.00
25328;DHT22;13279;51.300;12.394;2022-08-03T08:45:17;29.40;1.00
25328;DHT22;13279;51.300;12.394;2022-08-03T08:47:47;29.50;1.00
25328;DHT22;13279;51.300;12.394;2022-08-03T08:50:33;29.70;1.00
25328;DHT22;13279;51.300;12.394;2022-08-03T08:53:02;29.70;1.00
25328;DHT22;13279;51.300;12.394;2022-08-03T08:55:34;29.70;1.00
25328;DHT22;13279;51.300;12.394;2022-08-03T08:58:04;29.50;1.00
25328;DHT22;13279;51.300;12.394;2022-08-03T09:00:32;29.70;1.00
25328;DHT22;13279;51.300;12.394;2022-08-03T09:03:00;29.80;1.00
25328;DHT22;13279;51.300;12.394;2022-08-03T09:05:28;30.10;1.00
25328;DHT22;13279;51.300;12.394;2022-08-03T09:07:58;30.40;1.00
25328;DHT22;13279;51.300;12.394;2022-08-03T09:10:26;30.60;1.00
25328;DHT22;13279;51.300;12.394;2022-08-03T09:12:54;30.70;99.90
25328;DHT22;13279;51.300;12.394;2022-08-03T09:15:24;30.50;99.90
25328;DHT22;13279;51.300;12.394;2022-08-03T09:17:52;30.70;99.90
25328;DHT22;13279;51.300;12.394;2022-08-03T09:20:22;30.50;99.90
25328;DHT22;13279;51.300;12.394;2022-08-03T09:22:55;30.40;99.90
25328;DHT22;13279;51.300;12.394;2022-08-03T09:25:28;30.70;99.90
25328;DHT22;13279;51.300;12.394;2022-08-03T09:28:04;30.70;99.90
25328;DHT22;13279;51.300;12.394;2022-08-03T09:30:32;31.00;99.90
25328;DHT22;13279;51.300;12.394;2022-08-03T09:32:59;31.10;99.90
25328;DHT22;13279;51.300;12.394;2022-08-03T09:35:27;31.20;99.90
25328;DHT22;13279;51.300;12.394;2022-08-03T09:38:09;31.40;99.90
25328;DHT22;13279;51.300;12.394;2022-08-03T09:40:36;31.30;99.90
25328;DHT22;13279;51.300;12.394;2022-08-03T09:43:05;31.10;1.00
25328;DHT22;13279;51.300;12.394;2022-08-03T09:45:34;30.60;1.00
25328;DHT22;13279;51.300;12.394;2022-08-03T09:48:21;30.70;1.00
25328;DHT22;13279;51.300;12.394;2022-08-03T09:50:50;31.00;1.00
25328;DHT22;13279;51.300;12.394;2022-08-03T09:53:17;31.10;1.00
25328;DHT22;13279;51.300;12.394;2022-08-03T09:55:52;31.20;1.00
25328;DHT22;13279;51.300;12.394;2022-08-03T09:58:22;31.20;1.00
25328;DHT22;13279;51.300;12.394;2022-08-03T10:00:55;31.20;1.00
25328;DHT22;13279;51.300;12.394;2022-08-03T10:03:24;31.20;1.00
25328;DHT22;13279;51.300;12.394;2022-08-03T10:05:52;31.30;1.00
25328;DHT22;13279;51.300;12.394;2022-08-03T10:08:19;31.10;1.00
25328;DHT22;13279;51.300;12.394;2022-08-03T10:10:49;31.10;1.00
25328;DHT22;13279;51.300;12.394;2022-08-03T10:13:21;30.90;1.00
25328;DHT22;13279;51.300;12.394;2022-08-03T10:15:49;31.20;1.00
25328;DHT22;13279;51.300;12.394;2022-08-03T10:18:16;31.30;1.00
25328;DHT22;13279;51.300;12.394;2022-08-03T10:20:48;31.40;1.00
25328;DHT22;13279;51.300;12.394;2022-08-03T10:23:16;31.50;1.00
25328;DHT22;13279;51.300;12.394;2022-08-03T10:25:46;31.70;1.00
25328;DHT22;13279;51.300;12.394;2022-08-03T10:28:17;31.80;1.00
25328;DHT22;13279;51.300;12.394;2022-08-03T10:30:48;32.00;1.00
25328;DHT22;13279;51.300;12.394;2022-08-03T10:33:20;31.90;1.00
25328;DHT22;13279;51.300;12.394;2022-08-03T10:35:51;31.90;1.00
25328;DHT22;13279;51.300;12.394;2022-08-03T10:38:23;31.90;1.00
25328;DHT22;13279;51.300;12.394;2022-08-03T10:40:53;31.90;1.00
25328;DHT22;13279;51.300;12.394;2022-08-03T10:43:24;31.80;1.00
25328;DHT22;13279;51.300;12.394;2022-08-03T10:45:55;32.00;1.00
25328;DHT22;13279;51.300;12.394;2022-08-03T10:48:23;32.10;1.00
25328;DHT22;13279;51.300;12.394;2022-08-03T10:50:51;32.40;1.00
25328;DHT22;13279;51.300;12.394;2022-08-03T10:53:34;32.40;1.00
25328;DHT22;13279;51.300;12.394;2022-08-03T10:56:03;32.60;1.00
25328;DHT22;13279;51.300;12.394;2022-08-03T10:58:50;32.80;1.00
25328;DHT22;13279;51.300;12.394;2022-08-03T11:04:15;33.20;1.00
25328;DHT22;13279;51.300;12.394;2022-08-03T11:06:44;33.40;1.00
25328;DHT22;13279;51.300;12.394;2022-08-03T11:09:17;33.50;1.00
25328;DHT22;13279;51.300;12.394;2022-08-03T11:11:47;33.50;1.00
25328;DHT22;13279;51.300;12.394;2022-08-03T11:14:17;33.50;1.00
25328;DHT22;13279;51.300;12.394;2022-08-03T11:16:47;33.50;1.00
25328;DHT22;13279;51.300;12.394;2022-08-03T11:19:16;33.50;1.00
25328;DHT22;13279;51.300;12.394;2022-08-03T11:21:55;33.50;1.00
25328;DHT22;13279;51.300;12.394;2022-08-03T11:24:57;33.30;1.00
25328;DHT22;13279;51.300;12.394;2022-08-03T11:27:30;32.80;1.00
25328;DHT22;13279;51.300;12.394;2022-08-03T11:30:00;32.70;1.00
25328;DHT22;13279;51.300;12.394;2022-08-03T11:32:52;32.50;1.00
25328;DHT22;13279;51.300;12.394;2022-08-03T11:35:23;32.60;1.00
25328;DHT22;13279;51.300;12.394;2022-08-03T11:38:06;32.40;1.00
25328;DHT22;13279;51.300;12.394;2022-08-03T11:40:35;32.80;1.00
25328;DHT22;13279;51.300;12.394;2022-08-03T11:43:04;33.10;1.00
25328;DHT22;13279;51.300;12.394;2022-08-03T11:45:33;33.30;1.00
25328;DHT22;13279;51.300;12.394;2022-08-03T11:48:13;33.60;1.00
25328;DHT22;13279;51.300;12.394;2022-08-03T11:50:41;33.50;1.00
25328;DHT22;13279;51.300;12.394;2022-08-03T11:53:15;33.50;1.00
25328;DHT22;13279;51.300;12.394;2022-08-03T11:55:43;33.80;1.00
25328;DHT22;13279;51.300;12.394;2022-08-03T11:58:18;33.50;1.00
25328;DHT22;13279;51.300;12.394;2022-08-03T12:00:46;33.50;1.00
25328;DHT22;13279;51.300;12.394;2022-08-03T12:03:17;33.50;1.00
25328;DHT22;13279;51.300;12.394;2022-08-03T12:05:47;33.60;1.00
25328;DHT22;13279;51.300;12.394;2022-08-03T12:08:16;33.70;1.00
25328;DHT22;13279;51.300;12.394;2022-08-03T12:10:49;33.50;1.00
25328;DHT22;13279;51.300;12.394;2022-08-03T12:13:18;33.60;1.00
25328;DHT22;13279;51.300;12.394;2022-08-03T12:15:50;33.80;1.00
25328;DHT22;13279;51.300;12.394;2022-08-03T12:18:21;34.10;1.00
25328;DHT22;13279;51.300;12.394;2022-08-03T12:20:50;34.10;1.00
25328;DHT22;13279;51.300;12.394;2022-08-03T12:23:19;34.10;1.00
25328;DHT22;13279;51.300;12.394;2022-08-03T12:25:47;34.60;1.00
25328;DHT22;13279;51.300;12.394;2022-08-03T12:28:16;34.70;1.00
25328;DHT22;13279;51.300;12.394;2022-08-03T12:30:47;35.20;1.00
25328;DHT22;13279;51.300;12.394;2022-08-03T12:33:18;35.20;1.00
25328;DHT22;13279;51.300;12.394;2022-08-03T12:35:49;35.20;1.00
25328;DHT22;13279;51.300;12.394;2022-08-03T12:38:21;35.40;1.00
25328;DHT22;13279;51.300;12.394;2022-08-03T12:41:00;35.50;1.00
25328;DHT22;13279;51.300;12.394;2022-08-03T12:43:28;35.40;1.00
25328;DHT22;13279;51.300;12.394;2022-08-03T12:46:13;35.30;1.00
25328;DHT22;13279;51.300;12.394;2022-08-03T12:49:09;35.10;1.00
25328;DHT22;13279;51.300;12.394;2022-08-03T12:54:26;35.40;1.00
25328;DHT22;13279;51.300;12.394;2022-08-03T13:26:57;35.90;1.00
25328;DHT22;13279;51.300;12.394;2022-08-03T13:29:24;36.20;1.00
25328;DHT22;13279;51.300;12.394;2022-08-03T13:31:52;36.20;1.00
25328;DHT22;13279;51.300;12.394;2022-08-03T13:34:20;36.20;1.00
25328;DHT22;13279;51.300;12.394;2022-08-03T13:36:48;36.40;1.00
25328;DHT22;13279;51.300;12.394;2022-08-03T13:39:15;36.20;1.00
25328;DHT22;13279;51.300;12.394;2022-08-03T13:41:44;36.10;1.00
25328;DHT22;13279;51.300;12.394;2022-08-03T13:44:12;36.60;1.00
25328;DHT22;13279;51.300;12.394;2022-08-03T13:46:40;37.30;99.90
25328;DHT22;13279;51.300;12.394;2022-08-03T13:49:08;37.50;99.90
25328;DHT22;13279;51.300;12.394;2022-08-03T13:51:36;37.90;99.90
25328;DHT22;13279;51.300;12.394;2022-08-03T13:54:03;38.20;99.90
25328;DHT22;13279;51.300;12.394;2022-08-03T13:56:31;38.70;99.90
25328;DHT22;13279;51.300;12.394;2022-08-03T13:59:00;38.30;99.90
25328;DHT22;13279;51.300;12.394;2022-08-03T14:01:28;37.80;99.90
25328;DHT22;13279;51.300;12.394;2022-08-03T14:03:55;37.60;99.90
25328;DHT22;13279;51.300;12.394;2022-08-03T14:06:24;37.50;99.90
25328;DHT22;13279;51.300;12.394;2022-08-03T14:08:52;36.70;99.90
25328;DHT22;13279;51.300;12.394;2022-08-03T14:11:20;36.70;99.90
25328;DHT22;13279;51.300;12.394;2022-08-03T14:13:48;37.10;99.90
25328;DHT22;13279;51.300;12.394;2022-08-03T14:16:17;37.30;99.90
25328;DHT22;13279;51.300;12.394;2022-08-03T14:18:44;37.40;99.90
25328;DHT22;13279;51.300;12.394;2022-08-03T14:21:12;37.50;99.90
25328;DHT22;13279;51.300;12.394;2022-08-03T14:23:40;37.50;99.90
25328;DHT22;13279;51.300;12.394;2022-08-03T14:26:08;37.80;99.90
25328;DHT22;13279;51.300;12.394;2022-08-03T14:28:37;37.00;99.90
25328;DHT22;13279;51.300;12.394;2022-08-03T14:31:05;37.00;99.90
25328;DHT22;13279;51.300;12.394;2022-08-03T14:33:34;38.00;99.90
25328;DHT22;13279;51.300;12.394;2022-08-03T14:36:02;38.50;99.90
25328;DHT22;13279;51.300;12.394;2022-08-03T14:38:30;38.20;99.90
25328;DHT22;13279;51.300;12.394;2022-08-03T14:40:58;38.10;99.90
25328;DHT22;13279;51.300;12.394;2022-08-03T14:43:26;38.50;99.90
25328;DHT22;13279;51.300;12.394;2022-08-03T14:45:53;38.30;99.90
25328;DHT22;13279;51.300;12.394;2022-08-03T14:48:22;39.10;99.90
25328;DHT22;13279;51.300;12.394;2022-08-03T14:50:53;39.00;99.90
25328;DHT22;13279;51.300;12.394;2022-08-03T14:53:21;38.70;99.90
25328;DHT22;13279;51.300;12.394;2022-08-03T14:55:50;38.10;99.90
25328;DHT22;13279;51.300;12.394;2022-08-03T14:58:18;37.60;99.90
25328;DHT22;13279;51.300;12.394;2022-08-03T15:00:47;37.00;99.90
25328;DHT22;13279;51.300;12.394;2022-08-03T15:03:15;36.80;99.90
25328;DHT22;13279;51.300;12.394;2022-08-03T15:05:44;36.70;99.90
25328;DHT22;13279;51.300;12.394;2022-08-03T15:08:13;36.80;99.90
25328;DHT22;13279;51.300;12.394;2022-08-03T15:10:41;36.70;99.90
25328;DHT22;13279;51.300;12.394;2022-08-03T15:13:09;36.90;99.90
25328;DHT22;13279;51.300;12.394;2022-08-03T15:15:37;37.50;99.90
25328;DHT22;13279;51.300;12.394;2022-08-03T15:18:05;38.10;99.90
25328;DHT22;13279;51.300;12.394;2022-08-03T15:20:33;38.30;99.90
25328;DHT22;13279;51.300;12.394;2022-08-03T15:23:00;38.20;99.90
25328;DHT22;13279;51.300;12.394;2022-08-03T15:25:29;38.30;99.90
25328;DHT22;13279;51.300;12.394;2022-08-03T15:27:57;38.40;99.90
25328;DHT22;13279;51.300;12.394;2022-08-03T15:30:25;38.20;99.90
25328;DHT22;13279;51.300;12.394;2022-08-03T15:32:52;37.80;99.90
25328;DHT22;13279;51.300;12.394;2022-08-03T15:35:20;37.70;99.90
25328;DHT22;13279;51.300;12.394;2022-08-03T15:37:47;37.10;99.90
25328;DHT22;13279;51.300;12.394;2022-08-03T15:40:15;37.00;99.90
25328;DHT22;13279;51.300;12.394;2022-08-03T15:42:44;36.70;99.90
25328;DHT22;13279;51.300;12.394;2022-08-03T15:45:12;37.10;99.90
25328;DHT22;13279;51.300;12.394;2022-08-03T15:47:40;37.00;99.90
25328;DHT22;13279;51.300;12.394;2022-08-03T15:50:08;36.40;99.90
25328;DHT22;13279;51.300;12.394;2022-08-03T15:52:37;35.90;99.90
25328;DHT22;13279;51.300;12.394;2022-08-03T15:55:05;35.50;99.90
25328;DHT22;13279;51.300;12.394;2022-08-03T15:57:33;35.20;99.90
25328;DHT22;13279;51.300;12.394;2022-08-03T16:00:02;35.50;99.90
25328;DHT22;13279;51.300;12.394;2022-08-03T16:02:30;36.20;99.90
25328;DHT22;13279;51.300;12.394;2022-08-03T16:04:58;36.80;99.90
25328;DHT22;13279;51.300;12.394;2022-08-03T16:07:26;37.20;99.90
25328;DHT22;13279;51.300;12.394;2022-08-03T16:10:12;37.30;99.90
25328;DHT22;13279;51.300;12.394;2022-08-03T16:12:39;36.70;99.90
25328;DHT22;13279;51.300;12.394;2022-08-03T16:15:10;36.10;99.90
25328;DHT22;13279;51.300;12.394;2022-08-03T16:17:38;36.10;99.90
25328;DHT22;13279;51.300;12.394;2022-08-03T16:20:06;36.10;99.90
25328;DHT22;13279;51.300;12.394;2022-08-03T16:22:40;35.70;99.90
25328;DHT22;13279;51.300;12.394;2022-08-03T16:25:10;35.50;99.90
25328;DHT22;13279;51.300;12.394;2022-08-03T16:27:37;35.10;99.90
25328;DHT22;13279;51.300;12.394;2022-08-03T16:30:07;34.60;99.90
25328;DHT22;13279;51.300;12.394;2022-08-03T16:32:36;34.30;99.90
25328;DHT22;13279;51.300;12.394;2022-08-03T16:35:05;34.10;99.90
25328;DHT22;13279;51.300;12.394;2022-08-03T16:37:33;34.00;99.90
25328;DHT22;13279;51.300;12.394;2022-08-03T16:40:01;33.80;99.90
25328;DHT22;13279;51.300;12.394;2022-08-03T16:42:29;33.60;99.90
25328;DHT22;13279;51.300;12.394;2022-08-03T16:44:57;33.60;99.90
25328;DHT22;13279;51.300;12.394;2022-08-03T16:47:24;33.50;99.90
25328;DHT22;13279;51.300;12.394;2022-08-03T16:49:53;33.60;99.90
25328;DHT22;13279;51.300;12.394;2022-08-03T16:52:21;33.40;99.90
25328;DHT22;13279;51.300;12.394;2022-08-03T16:54:49;33.40;99.90
25328;DHT22;13279;51.300;12.394;2022-08-03T16:57:16;33.40;99.90
25328;DHT22;13279;51.300;12.394;2022-08-03T16:59:44;33.50;99.90
25328;DHT22;13279;51.300;12.394;2022-08-03T17:02:18;33.50;99.90
25328;DHT22;13279;51.300;12.394;2022-08-03T17:04:47;33.40;99.90
25328;DHT22;13279;51.300;12.394;2022-08-03T17:07:16;33.20;99.90
25328;DHT22;13279;51.300;12.394;2022-08-03T17:09:44;33.10;99.90
25328;DHT22;13279;51.300;12.394;2022-08-03T17:12:12;33.10;99.90
25328;DHT22;13279;51.300;12.394;2022-08-03T17:14:41;33.00;99.90
25328;DHT22;13279;51.300;12.394;2022-08-03T17:17:14;32.90;99.90
25328;DHT22;13279;51.300;12.394;2022-08-03T17:19:44;32.80;99.90
25328;DHT22;13279;51.300;12.394;2022-08-03T17:22:13;32.70;99.90
25328;DHT22;13279;51.300;12.394;2022-08-03T17:24:45;32.60;99.90
25328;DHT22;13279;51.300;12.394;2022-08-03T17:27:15;32.40;99.90
25328;DHT22;13279;51.300;12.394;2022-08-03T17:29:46;32.30;99.90
25328;DHT22;13279;51.300;12.394;2022-08-03T17:32:15;32.20;99.90
25328;DHT22;13279;51.300;12.394;2022-08-03T17:34:43;32.20;99.90
25328;DHT22;13279;51.300;12.394;2022-08-03T17:37:11;32.10;99.90
25328;DHT22;13279;51.300;12.394;2022-08-03T17:39:42;32.00;99.90
25328;DHT22;13279;51.300;12.394;2022-08-03T17:42:11;32.00;99.90
25328;DHT22;13279;51.300;12.394;2022-08-03T17:44:38;31.90;99.90
25328;DHT22;13279;51.300;12.394;2022-08-03T17:47:07;31.90;99.90
25328;DHT22;13279;51.300;12.394;2022-08-03T17:49:34;31.90;99.90
25328;DHT22;13279;51.300;12.394;2022-08-03T17:52:04;32.00;99.90
25328;DHT22;13279;51.300;12.394;2022-08-03T17:54:38;32.00;99.90
25328;DHT22;13279;51.300;12.394;2022-08-03T17:57:13;31.90;99.90
25328;DHT22;13279;51.300;12.394;2022-08-03T17:59:49;31.80;99.90
25328;DHT22;13279;51.300;12.394;2022-08-03T18:02:33;31.70;99.90
25328;DHT22;13279;51.300;12.394;2022-08-03T18:05:20;31.70;99.90
25328;DHT22;13279;51.300;12.394;2022-08-03T18:07:49;31.50;99.90
25328;DHT22;13279;51.300;12.394;2022-08-03T18:10:21;31.50;99.90
25328;DHT22;13279;51.300;12.394;2022-08-03T18:12:52;31.30;99.90
25328;DHT22;13279;51.300;12.394;2022-08-03T18:15:26;31.20;99.90
25328;DHT22;13279;51.300;12.394;2022-08-03T18:18:00;31.10;99.90
25328;DHT22;13279;51.300;12.394;2022-08-03T18:20:31;31.10;99.90
25328;DHT22;13279;51.300;12.394;2022-08-03T18:22:59;31.10;99.90
25328;DHT22;13279;51.300;12.394;2022-08-03T18:25:28;30.90;99.90
25328;DHT22;13279;51.300;12.394;2022-08-03T18:27:57;30.90;99.90
25328;DHT22;13279;51.300;12.394;2022-08-03T18:30:25;30.80;99.90
25328;DHT22;13279;51.300;12.394;2022-08-03T18:32:53;30.70;99.90
25328;DHT22;13279;51.300;12.394;2022-08-03T18:35:21;30.60;99.90
25328;DHT22;13279;51.300;12.394;2022-08-03T18:37:50;30.50;99.90
25328;DHT22;13279;51.300;12.394;2022-08-03T18:40:18;30.30;99.90
25328;DHT22;13279;51.300;12.394;2022-08-03T18:42:46;30.30;99.90
25328;DHT22;13279;51.300;12.394;2022-08-03T18:45:15;30.10;99.90
25328;DHT22;13279;51.300;12.394;2022-08-03T18:47:52;30.00;1.00
25328;DHT22;13279;51.300;12.394;2022-08-03T18:50:27;29.80;1.00
25328;DHT22;13279;51.300;12.394;2022-08-03T18:53:01;29.50;1.00
25328;DHT22;13279;51.300;12.394;2022-08-03T18:55:32;29.30;1.00
25328;DHT22;13279;51.300;12.394;2022-08-03T18:58:05;29.00;1.00
25328;DHT22;13279;51.300;12.394;2022-08-03T19:00:40;28.90;1.00
25328;DHT22;13279;51.300;12.394;2022-08-03T19:03:09;28.80;1.00
25328;DHT22;13279;51.300;12.394;2022-08-03T19:05:42;28.70;99.90
25328;DHT22;13279;51.300;12.394;2022-08-03T19:08:14;28.60;99.90
25328;DHT22;13279;51.300;12.394;2022-08-03T19:10:45;28.50;99.90
25328;DHT22;13279;51.300;12.394;2022-08-03T19:13:19;28.40;1.00
25328;DHT22;13279;51.300;12.394;2022-08-03T19:15:53;28.50;1.00
25328;DHT22;13279;51.300;12.394;2022-08-03T19:18:22;28.40;99.90
25328;DHT22;13279;51.300;12.394;2022-08-03T19:20:51;28.30;99.90
25328;DHT22;13279;51.300;12.394;2022-08-03T19:23:22;28.20;1.00
25328;DHT22;13279;51.300;12.394;2022-08-03T19:25:51;28.20;1.00
25328;DHT22;13279;51.300;12.394;2022-08-03T19:28:20;28.20;1.00
25328;DHT22;13279;51.300;12.394;2022-08-03T19:30:48;28.10;99.90